Time;durP1;ratioP1;P1;durP2;ratioP2;P2;SDS_P1;SDS_P2;PMS_P1;PMS_P2;Temp;Humidity;BMP_temperature;BMP_pressure;BME280_temperature;BME280_humidity;BME280_pressure;Samples;Min_cycle;Max_cycle;Signal;HPM_P1;HPM_P2
2023/09/01 00:00:31;;;;;;;7.28;3.78;;;12.60;99.90;;;;;;5038947;28;20044;-57
2023/09/01 00:02:56;;;;;;;6.35;3.80;;;12.70;99.90;;;;;;5027974;28;20196;-56
2023/09/01 00:05:22;;;;;;;7.65;3.85;;;12.60;99.90;;;;;;5027576;28;20051;-56
2023/09/01 00:07:48;;;;;;;12.70;4.03;;;12.60;99.90;;;;;;5026238;28;20036;-57
2023/09/01 00:10:13;;;;;;;8.18;3.90;;;12.60;99.90;;;;;;5041571;28;20525;-54
2023/09/01 00:12:39;;;;;;;5.80;3.50;;;12.50;99.90;;;;;;5042815;28;20056;-57
2023/09/01 00:15:05;;;;;;;7.13;3.42;;;12.50;99.90;;;;;;5025308;28;20044;-57
2023/09/01 00:17:31;;;;;;;6.90;4.45;;;12.40;99.90;;;;;;5026454;28;20040;-55
2023/09/01 00:19:57;;;;;;;6.65;3.83;;;12.40;99.90;;;;;;5030069;28;20143;-57
2023/09/01 00:22:22;;;;;;;5.80;3.58;;;12.40;99.90;;;;;;5007425;28;20033;-56
2023/09/01 00:24:48;;;;;;;4.22;3.20;;;12.40;99.90;;;;;;5040763;28;20059;-57
2023/09/01 00:27:14;;;;;;;7.40;3.63;;;12.30;99.90;;;;;;5025720;28;20041;-57
2023/09/01 00:29:40;;;;;;;4.47;3.58;;;12.30;99.90;;;;;;5009258;28;20049;-55
2023/09/01 00:32:06;;;;;;;4.28;3.28;;;12.30;99.90;;;;;;5029226;28;20036;-57
2023/09/01 00:34:32;;;;;;;5.05;3.40;;;12.30;99.90;;;;;;5023416;28;20060;-57
2023/09/01 00:36:58;;;;;;;4.78;2.78;;;12.30;99.90;;;;;;5024178;28;20053;-57
2023/09/01 00:39:23;;;;;;;7.95;3.50;;;12.30;99.90;;;;;;5042251;28;20287;-57
2023/09/01 00:41:49;;;;;;;5.47;3.78;;;12.30;99.90;;;;;;5044274;28;20566;-57
2023/09/01 00:44:15;;;;;;;7.10;3.53;;;12.20;99.90;;;;;;5036918;28;20123;-56
2023/09/01 00:46:46;;;;;;;5.35;3.33;;;12.20;99.90;;;;;;5045963;28;20076;-56
2023/09/01 00:49:12;;;;;;;5.35;4.22;;;12.20;99.90;;;;;;5040424;28;20060;-56
2023/09/01 00:51:38;;;;;;;7.18;4.05;;;12.20;99.90;;;;;;5057745;28;20523;-57
2023/09/01 00:54:05;;;;;;;7.85;4.20;;;12.20;99.90;;;;;;5052737;28;20068;-57
2023/09/01 00:56:31;;;;;;;8.60;3.97;;;12.20;99.90;;;;;;5036218;28;20071;-57
2023/09/01 00:58:57;;;;;;;5.40;3.70;;;12.20;99.90;;;;;;5031918;28;20056;-56
2023/09/01 01:01:23;;;;;;;6.80;4.38;;;12.20;99.90;;;;;;5050050;28;20617;-56
2023/09/01 01:03:51;;;;;;;6.45;4.20;;;12.20;99.90;;;;;;5044143;28;20052;-56
2023/09/01 01:06:28;;;;;;;7.28;3.92;;;12.20;99.90;;;;;;5060600;28;20042;-57
2023/09/01 01:09:35;;;;;;;7.65;4.25;;;12.10;99.90;;;;;;5020700;28;20040;-56
2023/09/01 01:12:25;;;;;;;7.47;4.07;;;12.10;99.90;;;;;;5062762;28;20044;-57
2023/09/01 01:14:53;;;;;;;7.40;4.20;;;12.10;99.90;;;;;;5040420;28;20135;-57
2023/09/01 01:17:21;;;;;;;7.50;4.18;;;12.10;99.90;;;;;;5040046;28;20043;-57
2023/09/01 01:20:13;;;;;;;6.15;3.70;;;12.00;99.90;;;;;;5033097;28;20408;-57
2023/09/01 01:22:43;;;;;;;6.82;4.13;;;12.10;99.90;;;;;;5018526;28;20083;-57
2023/09/01 01:25:12;;;;;;;6.07;3.58;;;12.10;99.90;;;;;;5023993;28;20036;-57
2023/09/01 01:27:42;;;;;;;5.45;4.00;;;12.10;99.90;;;;;;5067686;28;20392;-57
2023/09/01 01:30:14;;;;;;;8.98;4.00;;;12.00;99.90;;;;;;5041944;28;20098;-57
2023/09/01 01:32:44;;;;;;;5.05;3.38;;;12.00;99.90;;;;;;5031559;28;20048;-57
2023/09/01 01:35:31;;;;;;;5.30;3.38;;;12.00;99.90;;;;;;5049355;28;20052;-57
2023/09/01 01:38:21;;;;;;;5.97;3.72;;;12.00;99.90;;;;;;5040960;28;20165;-56
2023/09/01 01:40:50;;;;;;;5.40;3.88;;;11.90;99.90;;;;;;5041638;28;20119;-56
2023/09/01 01:43:23;;;;;;;6.57;3.53;;;11.90;99.90;;;;;;5044593;28;20040;-58
2023/09/01 01:45:49;;;;;;;4.93;3.55;;;11.90;99.90;;;;;;5065215;28;20043;-57
2023/09/01 01:48:15;;;;;;;12.65;4.50;;;11.90;99.90;;;;;;5028599;28;20056;-58
2023/09/01 01:50:41;;;;;;;6.65;3.70;;;11.90;99.90;;;;;;5038256;28;20048;-56
2023/09/01 01:53:08;;;;;;;7.13;4.00;;;11.90;99.90;;;;;;5041157;28;20406;-57
2023/09/01 01:55:34;;;;;;;7.88;3.95;;;11.90;99.90;;;;;;5039551;28;20087;-56
2023/09/01 01:58:00;;;;;;;5.95;3.80;;;11.80;99.90;;;;;;5064914;28;20064;-57
2023/09/01 02:00:29;;;;;;;7.78;4.55;;;11.90;99.90;;;;;;5041407;28;20056;-58
2023/09/01 02:02:54;;;;;;;8.85;5.22;;;11.80;99.90;;;;;;5041436;28;20041;-57
2023/09/01 02:05:20;;;;;;;6.45;2.92;;;11.80;99.90;;;;;;5042577;28;20044;-57
2023/09/01 02:07:46;;;;;;;6.82;3.75;;;11.70;99.90;;;;;;5042996;28;20491;-57
2023/09/01 02:10:12;;;;;;;6.45;4.05;;;11.70;99.90;;;;;;5039117;28;20037;-57
2023/09/01 02:12:38;;;;;;;7.78;4.20;;;11.80;99.90;;;;;;5044973;28;20143;-57
2023/09/01 02:15:08;;;;;;;8.40;4.47;;;11.70;99.90;;;;;;5014703;28;20500;-56
2023/09/01 02:17:37;;;;;;;9.07;4.43;;;11.70;99.90;;;;;;5040933;28;20462;-55
2023/09/01 02:20:16;;;;;;;5.97;4.15;;;11.70;99.90;;;;;;5044028;28;20412;-57
2023/09/01 02:22:45;;;;;;;8.85;4.40;;;11.70;99.90;;;;;;5045581;28;20040;-57
2023/09/01 02:25:12;;;;;;;6.13;4.35;;;11.70;99.90;;;;;;5042151;28;20044;-57
2023/09/01 02:27:42;;;;;;;5.63;3.85;;;11.70;99.90;;;;;;5064795;28;20044;-57
2023/09/01 02:30:10;;;;;;;6.57;4.55;;;11.60;99.90;;;;;;5033590;28;20036;-56
2023/09/01 02:32:37;;;;;;;7.43;4.13;;;11.70;99.90;;;;;;5043236;28;20052;-57
2023/09/01 02:35:25;;;;;;;7.05;4.55;;;11.60;99.90;;;;;;5043926;28;20059;-55
2023/09/01 02:37:51;;;;;;;7.40;4.50;;;11.60;99.90;;;;;;5039232;28;20468;-56
2023/09/01 02:40:17;;;;;;;6.28;4.20;;;11.50;99.90;;;;;;5027217;28;20076;-56
2023/09/01 02:42:43;;;;;;;5.68;3.97;;;11.50;99.90;;;;;;5038078;28;20083;-57
2023/09/01 02:45:13;;;;;;;8.10;4.10;;;11.50;99.90;;;;;;5051693;28;20037;-57
2023/09/01 02:47:43;;;;;;;7.35;4.00;;;11.50;99.90;;;;;;5023152;28;20059;-57
2023/09/01 02:50:09;;;;;;;6.97;4.10;;;11.50;99.90;;;;;;5043882;28;20040;-58
2023/09/01 02:52:35;;;;;;;5.57;3.70;;;11.40;99.90;;;;;;5027786;28;20041;-58
2023/09/01 02:55:03;;;;;;;8.43;3.63;;;11.40;99.90;;;;;;5039525;28;20450;-57
2023/09/01 02:57:28;;;;;;;8.90;4.32;;;11.40;99.90;;;;;;5023055;28;20483;-56
2023/09/01 02:59:54;;;;;;;6.32;4.22;;;11.50;99.90;;;;;;5060025;28;20059;-56
2023/09/01 03:02:20;;;;;;;6.70;4.53;;;11.40;99.90;;;;;;5045991;28;20449;-55
2023/09/01 03:04:52;;;;;;;8.88;4.68;;;11.40;99.90;;;;;;5038364;28;20036;-55
2023/09/01 03:07:18;;;;;;;6.03;4.68;;;11.40;99.90;;;;;;5058811;28;20613;-57
2023/09/01 03:09:44;;;;;;;5.95;4.20;;;11.40;99.90;;;;;;5066154;28;20036;-56
2023/09/01 03:12:10;;;;;;;6.30;3.88;;;11.30;99.90;;;;;;5031464;28;20393;-57
2023/09/01 03:14:36;;;;;;;5.55;3.38;;;11.30;99.90;;;;;;5040811;28;20129;-57
2023/09/01 03:17:04;;;;;;;4.82;3.72;;;11.30;99.90;;;;;;5025573;28;20068;-58
2023/09/01 03:19:31;;;;;;;6.10;3.45;;;11.20;99.90;;;;;;5041634;28;20070;-55
2023/09/01 03:22:00;;;;;;;6.28;3.83;;;11.20;99.90;;;;;;5065234;28;20040;-56
2023/09/01 03:24:27;;;;;;;5.35;3.25;;;11.30;99.90;;;;;;5023774;28;20040;-57
2023/09/01 03:26:53;;;;;;;5.43;4.00;;;11.30;99.90;;;;;;5032343;28;20043;-56
2023/09/01 03:29:18;;;;;;;7.25;5.07;;;11.30;99.90;;;;;;5028936;28;20045;-57
2023/09/01 03:31:44;;;;;;;5.78;5.00;;;11.30;99.90;;;;;;5017300;28;20120;-53
2023/09/01 03:34:10;;;;;;;7.30;4.47;;;11.20;99.90;;;;;;5030190;28;20101;-57
2023/09/01 03:36:36;;;;;;;5.03;3.15;;;11.20;99.90;;;;;;5031423;28;20036;-57
2023/09/01 03:39:03;;;;;;;6.65;3.75;;;11.20;99.90;;;;;;5046369;28;20259;-57
2023/09/01 03:41:28;;;;;;;5.05;3.63;;;11.30;99.90;;;;;;5045012;28;20080;-57
2023/09/01 03:43:54;;;;;;;4.38;3.13;;;11.20;99.90;;;;;;5009193;28;20127;-58
2023/09/01 03:46:20;;;;;;;5.57;3.42;;;11.20;99.90;;;;;;5021577;28;20036;-58
2023/09/01 03:48:45;;;;;;;5.05;3.20;;;11.20;99.90;;;;;;5042635;28;20135;-57
2023/09/01 03:51:16;;;;;;;4.10;2.50;;;11.20;99.90;;;;;;5044905;28;20048;-57
2023/09/01 03:53:42;;;;;;;6.10;3.10;;;11.20;99.90;;;;;;5041113;28;20040;-56
2023/09/01 03:56:09;;;;;;;5.05;3.45;;;11.10;99.90;;;;;;5042203;28;20066;-58
2023/09/01 03:58:36;;;;;;;4.18;3.03;;;11.10;99.90;;;;;;5027111;28;20055;-57
2023/09/01 04:01:01;;;;;;;4.28;2.92;;;11.10;99.90;;;;;;5043774;28;20048;-56
2023/09/01 04:03:27;;;;;;;4.25;2.63;;;11.10;99.90;;;;;;5039759;28;20050;-56
2023/09/01 04:05:57;;;;;;;5.60;3.58;;;11.10;99.90;;;;;;5038005;28;20460;-58
2023/09/01 04:08:23;;;;;;;23.13;16.80;;;11.10;99.90;;;;;;5039687;28;20048;-57
2023/09/01 04:10:49;;;;;;;17.52;12.73;;;11.00;99.90;;;;;;5022018;28;20049;-59
2023/09/01 04:13:14;;;;;;;12.55;8.43;;;11.00;99.90;;;;;;5061526;28;20064;-58
2023/09/01 04:15:40;;;;;;;7.30;4.53;;;10.90;99.90;;;;;;5026104;28;20044;-56
2023/09/01 04:18:06;;;;;;;9.13;5.80;;;10.90;99.90;;;;;;5043792;28;20113;-56
2023/09/01 04:20:31;;;;;;;12.27;8.43;;;10.90;99.90;;;;;;5040877;28;20040;-57
2023/09/01 04:22:57;;;;;;;5.13;4.25;;;10.90;99.90;;;;;;5041181;28;20093;-58
2023/09/01 04:25:23;;;;;;;7.70;4.78;;;10.90;99.90;;;;;;5021458;28;20045;-55
2023/09/01 04:27:49;;;;;;;6.45;3.83;;;10.90;99.90;;;;;;5041391;28;20039;-57
2023/09/01 04:30:14;;;;;;;8.55;3.90;;;10.80;99.90;;;;;;5046567;28;20051;-57
2023/09/01 04:32:43;;;;;;;4.50;3.42;;;10.80;99.90;;;;;;5028326;28;20053;-58
2023/09/01 04:35:10;;;;;;;5.75;4.05;;;10.80;99.90;;;;;;5045286;28;20411;-56
2023/09/01 04:37:35;;;;;;;5.57;4.03;;;10.80;99.90;;;;;;5034600;28;20048;-57
2023/09/01 04:40:06;;;;;;;5.32;3.72;;;10.80;99.90;;;;;;5036226;28;20488;-57
2023/09/01 04:42:32;;;;;;;10.32;4.25;;;10.80;99.90;;;;;;5024550;28;20399;-58
2023/09/01 04:44:57;;;;;;;5.18;4.00;;;10.80;99.90;;;;;;5025346;28;20218;-55
2023/09/01 04:47:24;;;;;;;6.93;4.20;;;10.80;99.90;;;;;;5041220;28;20087;-57
2023/09/01 04:49:50;;;;;;;6.07;3.67;;;10.70;99.90;;;;;;5031291;28;20435;-58
2023/09/01 04:52:15;;;;;;;8.13;3.70;;;10.70;99.90;;;;;;5041692;28;20132;-58
2023/09/01 04:54:41;;;;;;;4.95;3.65;;;10.70;99.90;;;;;;5039700;28;20354;-57
2023/09/01 04:57:07;;;;;;;7.45;4.25;;;10.70;99.90;;;;;;5026120;28;20523;-57
2023/09/01 04:59:33;;;;;;;6.28;4.15;;;10.70;99.90;;;;;;5042908;28;20044;-57
2023/09/01 05:02:00;;;;;;;8.48;4.25;;;10.70;99.90;;;;;;5031605;28;20037;-57
2023/09/01 05:04:26;;;;;;;5.78;4.00;;;10.70;99.90;;;;;;5047700;28;20125;-57
2023/09/01 05:06:52;;;;;;;5.43;3.83;;;10.70;99.90;;;;;;5037195;28;20083;-58
2023/09/01 05:09:19;;;;;;;5.18;3.60;;;10.70;99.90;;;;;;5043071;28;20040;-58
2023/09/01 05:11:44;;;;;;;5.38;4.00;;;10.70;99.90;;;;;;5047875;28;20033;-58
2023/09/01 05:14:10;;;;;;;5.35;3.38;;;10.70;99.90;;;;;;5048166;28;20353;-59
2023/09/01 05:16:36;;;;;;;5.00;3.67;;;10.70;99.90;;;;;;5039193;28;20496;-57
2023/09/01 05:19:02;;;;;;;4.57;3.53;;;10.70;99.90;;;;;;5042723;28;20041;-56
2023/09/01 05:21:28;;;;;;;6.75;4.32;;;10.70;99.90;;;;;;5028822;28;20488;-56
2023/09/01 05:23:54;;;;;;;6.00;4.15;;;10.70;99.90;;;;;;5023585;28;20269;-58
2023/09/01 05:26:19;;;;;;;4.82;3.80;;;10.70;99.90;;;;;;5029582;28;20123;-58
2023/09/01 05:28:45;;;;;;;8.60;4.20;;;10.70;99.90;;;;;;5041851;28;20124;-55
2023/09/01 05:31:11;;;;;;;7.40;4.35;;;10.80;99.90;;;;;;5039588;28;20072;-55
2023/09/01 05:33:36;;;;;;;5.50;4.15;;;10.80;99.90;;;;;;5045683;28;20524;-58
2023/09/01 05:36:02;;;;;;;5.72;4.30;;;10.90;99.90;;;;;;5049438;28;20523;-58
2023/09/01 05:38:28;;;;;;;6.97;3.97;;;11.00;99.90;;;;;;5044875;28;20048;-57
2023/09/01 05:40:58;;;;;;;5.32;4.35;;;11.00;99.90;;;;;;5013023;28;20494;-58
2023/09/01 05:43:24;;;;;;;5.93;3.65;;;11.20;99.90;;;;;;5028060;28;20048;-57
2023/09/01 05:45:51;;;;;;;6.20;3.17;;;11.20;99.90;;;;;;5048021;28;20048;-57
2023/09/01 05:48:16;;;;;;;5.10;3.95;;;11.30;99.90;;;;;;5048146;28;20915;-58
2023/09/01 05:50:42;;;;;;;4.70;3.40;;;11.40;99.90;;;;;;5042739;28;20123;-58
2023/09/01 05:53:09;;;;;;;5.03;3.28;;;11.50;99.90;;;;;;5008711;28;20063;-58
2023/09/01 05:55:36;;;;;;;5.63;3.70;;;11.60;99.90;;;;;;5043850;28;20036;-58
2023/09/01 05:58:02;;;;;;;6.82;3.65;;;11.60;99.90;;;;;;5058241;28;20286;-57
2023/09/01 06:00:29;;;;;;;7.78;3.75;;;11.70;99.90;;;;;;5061285;28;20045;-58
2023/09/01 06:02:58;;;;;;;8.20;4.13;;;11.70;99.90;;;;;;5022898;28;20039;-58
2023/09/01 06:05:24;;;;;;;6.28;3.53;;;11.80;99.90;;;;;;5047175;28;20123;-58
2023/09/01 06:07:50;;;;;;;5.47;3.67;;;11.90;99.90;;;;;;5046216;28;20185;-57
2023/09/01 06:10:15;;;;;;;4.97;3.65;;;12.00;99.90;;;;;;5040999;28;20029;-55
2023/09/01 06:12:42;;;;;;;8.40;4.28;;;12.10;99.90;;;;;;5027778;28;20053;-56
2023/09/01 06:15:08;;;;;;;7.22;4.32;;;12.10;99.90;;;;;;5026016;28;20052;-58
2023/09/01 06:17:34;;;;;;;6.38;4.50;;;12.20;99.90;;;;;;5046113;28;20187;-57
2023/09/01 06:20:00;;;;;;;7.95;4.40;;;12.30;99.90;;;;;;5029058;28;20586;-57
2023/09/01 06:22:26;;;;;;;6.53;4.28;;;12.40;99.90;;;;;;5030984;28;20043;-56
2023/09/01 06:24:52;;;;;;;7.10;3.75;;;12.50;99.90;;;;;;5043966;28;20052;-55
2023/09/01 06:27:17;;;;;;;6.28;4.05;;;12.60;99.90;;;;;;5047242;28;20040;-56
2023/09/01 06:29:43;;;;;;;9.65;4.38;;;12.60;99.90;;;;;;5062617;28;20385;-56
2023/09/01 06:32:11;;;;;;;7.00;3.95;;;12.80;99.90;;;;;;5040876;28;20549;-57
2023/09/01 06:34:38;;;;;;;7.35;4.03;;;12.90;99.90;;;;;;5043009;28;20045;-58
2023/09/01 06:37:04;;;;;;;9.00;4.38;;;12.90;99.90;;;;;;5064173;28;20041;-58
2023/09/01 06:39:29;;;;;;;4.95;3.13;;;13.00;99.90;;;;;;5046527;28;20756;-56
2023/09/01 06:41:55;;;;;;;7.93;3.75;;;13.10;99.90;;;;;;5025717;28;20044;-58
2023/09/01 06:44:21;;;;;;;5.97;3.97;;;13.20;99.90;;;;;;5026504;28;20124;-57
2023/09/01 06:46:47;;;;;;;6.63;4.13;;;13.40;99.90;;;;;;5044756;28;20078;-58
2023/09/01 06:49:13;;;;;;;6.20;3.55;;;13.50;99.90;;;;;;5026987;28;20115;-59
2023/09/01 06:51:38;;;;;;;8.38;4.00;;;13.50;99.90;;;;;;5060961;28;20040;-58
2023/09/01 06:54:04;;;;;;;6.65;3.92;;;13.60;99.90;;;;;;5043569;28;20059;-58
2023/09/01 06:56:30;;;;;;;7.35;4.05;;;13.60;99.90;;;;;;5048058;28;20044;-58
2023/09/01 06:58:55;;;;;;;9.52;3.90;;;13.60;99.90;;;;;;5031618;28;20502;-57
2023/09/01 07:01:21;;;;;;;6.63;3.60;;;13.70;99.90;;;;;;5041279;28;20040;-58
2023/09/01 07:03:50;;;;;;;6.80;3.60;;;13.80;99.90;;;;;;5025696;28;20545;-56
2023/09/01 07:06:17;;;;;;;7.78;4.18;;;13.90;99.90;;;;;;5025669;28;20135;-57
2023/09/01 07:08:43;;;;;;;6.40;3.15;;;14.00;99.90;;;;;;5023181;28;20032;-57
2023/09/01 07:11:10;;;;;;;8.00;4.32;;;14.10;99.90;;;;;;5042453;28;20058;-58
2023/09/01 07:13:37;;;;;;;11.75;3.67;;;14.20;99.90;;;;;;5039390;28;20033;-56
2023/09/01 07:16:03;;;;;;;9.02;5.25;;;14.40;99.90;;;;;;5039975;28;20044;-58
2023/09/01 07:18:29;;;;;;;8.15;3.65;;;14.50;99.90;;;;;;5036265;28;20060;-58
2023/09/01 07:20:59;;;;;;;6.47;3.03;;;14.60;99.90;;;;;;5040853;28;20637;-58
2023/09/01 07:23:25;;;;;;;5.45;3.20;;;14.70;99.90;;;;;;5038086;28;20046;-58
2023/09/01 07:25:52;;;;;;;5.68;2.78;;;14.80;99.90;;;;;;5007039;28;20435;-59
2023/09/01 07:28:18;;;;;;;9.05;3.30;;;14.90;99.90;;;;;;5050205;28;20035;-57
2023/09/01 07:30:43;;;;;;;7.10;2.92;;;15.00;99.90;;;;;;5040197;28;20462;-59
2023/09/01 07:33:09;;;;;;;5.60;2.90;;;15.00;99.90;;;;;;5044765;28;20098;-58
2023/09/01 07:35:35;;;;;;;7.07;2.50;;;15.10;99.90;;;;;;5043794;28;20110;-58
2023/09/01 07:38:03;;;;;;;5.60;3.08;;;15.10;99.90;;;;;;5043693;28;20044;-57
2023/09/01 07:40:32;;;;;;;7.05;2.80;;;15.10;99.90;;;;;;5019372;28;20059;-58
2023/09/01 07:42:59;;;;;;;6.43;2.85;;;15.10;99.90;;;;;;5043758;28;20458;-57
2023/09/01 07:45:26;;;;;;;6.82;2.70;;;15.10;99.90;;;;;;5043506;28;20102;-58
2023/09/01 07:47:52;;;;;;;7.32;2.60;;;15.10;99.90;;;;;;5039291;28;20048;-58
2023/09/01 07:50:18;;;;;;;4.43;2.00;;;15.20;99.90;;;;;;5042135;28;20029;-58
2023/09/01 07:52:43;;;;;;;3.40;2.17;;;15.20;99.90;;;;;;5042151;28;20123;-59
2023/09/01 07:55:09;;;;;;;4.97;2.30;;;15.20;99.90;;;;;;5027505;28;20275;-58
2023/09/01 07:57:35;;;;;;;7.60;2.50;;;15.30;99.90;;;;;;5023882;28;20396;-58
2023/09/01 08:00:00;;;;;;;4.88;2.17;;;15.30;99.90;;;;;;5045200;28;20045;-57
2023/09/01 08:02:27;;;;;;;6.80;2.80;;;15.40;99.90;;;;;;5008703;28;20056;-59
2023/09/01 08:04:54;;;;;;;6.20;2.08;;;15.50;99.90;;;;;;5012182;28;20185;-58
2023/09/01 08:07:19;;;;;;;4.53;2.47;;;15.50;99.90;;;;;;5043852;28;20083;-57
2023/09/01 08:09:45;;;;;;;3.95;2.60;;;15.60;99.90;;;;;;5028086;28;20203;-58
2023/09/01 08:12:11;;;;;;;3.78;2.55;;;15.70;99.90;;;;;;5045989;28;20376;-58
2023/09/01 08:14:37;;;;;;;4.85;2.58;;;15.70;99.90;;;;;;5026112;28;20119;-57
2023/09/01 08:17:03;;;;;;;7.28;2.45;;;15.70;99.90;;;;;;5043006;28;20068;-58
2023/09/01 08:19:28;;;;;;;5.45;2.33;;;15.80;99.90;;;;;;5023538;28;20036;-55
2023/09/01 08:21:56;;;;;;;6.72;2.50;;;15.80;99.90;;;;;;5041142;28;20492;-57
2023/09/01 08:24:21;;;;;;;5.13;2.50;;;15.90;99.90;;;;;;5043625;28;20479;-57
2023/09/01 08:26:48;;;;;;;6.70;2.75;;;16.00;99.90;;;;;;5061842;28;20102;-57
2023/09/01 08:29:14;;;;;;;5.30;2.00;;;16.00;99.90;;;;;;5024443;28;20384;-57
2023/09/01 08:31:41;;;;;;;4.57;2.55;;;16.10;99.90;;;;;;5023743;28;20047;-58
2023/09/01 08:34:10;;;;;;;4.18;1.90;;;16.20;99.90;;;;;;5041920;28;20157;-57
2023/09/01 08:36:37;;;;;;;7.32;2.67;;;16.20;99.90;;;;;;5036398;28;20119;-58
2023/09/01 08:39:03;;;;;;;4.55;2.22;;;16.40;99.90;;;;;;5038250;28;20064;-58
2023/09/01 08:41:29;;;;;;;6.47;2.33;;;16.40;99.90;;;;;;5023145;28;20044;-58
2023/09/01 08:44:02;;;;;;;7.32;3.08;;;16.50;99.90;;;;;;5037624;28;20041;-58
2023/09/01 08:46:35;;;;;;;6.25;2.83;;;16.60;99.90;;;;;;5039311;28;20045;-58
2023/09/01 08:49:02;;;;;;;11.27;3.03;;;16.60;99.90;;;;;;5037384;28;20271;-58
2023/09/01 08:51:29;;;;;;;5.68;2.60;;;16.60;99.90;;;;;;5043061;28;20194;-57
2023/09/01 08:53:55;;;;;;;6.68;2.70;;;16.60;99.90;;;;;;5033046;28;20079;-57
2023/09/01 08:56:21;;;;;;;7.18;3.22;;;16.60;99.90;;;;;;5034039;28;20123;-58
2023/09/01 08:58:47;;;;;;;5.30;2.50;;;16.70;99.90;;;;;;5022960;28;20519;-58
2023/09/01 09:01:15;;;;;;;5.50;2.58;;;16.60;99.90;;;;;;5028062;28;20128;-57
2023/09/01 09:03:41;;;;;;;6.15;2.85;;;16.70;99.90;;;;;;5054973;28;20044;-58
2023/09/01 09:06:07;;;;;;;5.63;2.30;;;16.70;99.90;;;;;;5026551;28;20099;-59
2023/09/01 09:08:34;;;;;;;8.07;3.33;;;16.80;99.90;;;;;;5018700;28;20120;-58
2023/09/01 09:11:00;;;;;;;6.60;2.90;;;16.80;99.90;;;;;;5044895;28;20045;-58
2023/09/01 09:13:28;;;;;;;5.95;2.25;;;16.80;99.90;;;;;;5024091;28;20433;-58
2023/09/01 09:16:14;;;;;;;5.97;2.22;;;16.90;99.90;;;;;;5024382;28;20434;-59
2023/09/01 09:18:44;;;;;;;4.75;1.88;;;16.90;99.90;;;;;;5042841;28;20479;-59
2023/09/01 09:21:29;;;;;;;7.07;2.33;;;16.90;99.90;;;;;;5042843;28;20572;-59
2023/09/01 09:23:57;;;;;;;6.53;2.08;;;17.00;99.90;;;;;;5022163;28;21036;-58
2023/09/01 09:26:27;;;;;;;4.18;2.22;;;17.10;99.90;;;;;;5048633;28;20098;-58
2023/09/01 09:28:54;;;;;;;6.68;2.70;;;17.10;99.90;;;;;;5045210;28;20276;-59
2023/09/01 09:31:33;;;;;;;5.13;1.80;;;17.20;99.90;;;;;;5031860;28;20048;-59
2023/09/01 09:34:15;;;;;;;6.72;2.72;;;17.20;99.90;;;;;;5028470;28;20036;-59
2023/09/01 09:36:41;;;;;;;3.88;2.60;;;17.20;99.90;;;;;;5056825;28;20032;-59
2023/09/01 09:39:21;;;;;;;6.32;2.40;;;17.10;99.90;;;;;;5020699;28;20044;-59
2023/09/01 09:41:47;;;;;;;5.45;2.13;;;17.10;99.90;;;;;;5038454;28;20566;-57
2023/09/01 09:44:25;;;;;;;4.95;2.05;;;17.10;99.90;;;;;;5045347;28;20286;-59
2023/09/01 09:46:52;;;;;;;6.10;2.38;;;17.10;99.90;;;;;;5045110;28;20378;-57
2023/09/01 09:49:19;;;;;;;5.03;2.08;;;17.10;99.90;;;;;;5044841;28;20499;-58
2023/09/01 09:51:50;;;;;;;6.65;2.65;;;17.20;99.90;;;;;;5047600;28;20047;-59
2023/09/01 09:54:20;;;;;;;7.63;2.50;;;17.20;99.90;;;;;;5047422;28;20698;-59
2023/09/01 09:56:48;;;;;;;8.77;2.30;;;17.20;99.90;;;;;;5047020;28;20047;-59
2023/09/01 09:59:34;;;;;;;4.55;1.98;;;17.20;99.90;;;;;;5040957;28;20041;-59
2023/09/01 10:02:05;;;;;;;4.07;1.88;;;17.20;99.90;;;;;;5030240;28;20037;-58
2023/09/01 10:04:34;;;;;;;4.95;2.08;;;17.30;99.90;;;;;;5047560;28;20094;-59
2023/09/01 10:07:00;;;;;;;3.72;1.52;;;17.50;99.90;;;;;;5061095;28;20102;-58
2023/09/01 10:09:26;;;;;;;5.47;2.72;;;17.60;99.90;;;;;;5061000;28;20041;-59
2023/09/01 10:11:53;;;;;;;4.63;2.30;;;17.70;99.90;;;;;;5037891;28;20049;-58
2023/09/01 10:14:23;;;;;;;6.22;2.53;;;17.70;99.90;;;;;;5030637;28;20732;-59
2023/09/01 10:16:49;;;;;;;4.45;2.53;;;17.70;99.90;;;;;;5024867;28;20044;-59
2023/09/01 10:19:19;;;;;;;6.00;2.40;;;17.70;99.90;;;;;;5062165;28;20430;-59
2023/09/01 10:21:45;;;;;;;3.42;2.08;;;17.80;99.90;;;;;;5028250;28;20046;-59
2023/09/01 10:24:16;;;;;;;8.52;2.13;;;17.80;99.90;;;;;;5046897;28;20115;-56
2023/09/01 10:26:42;;;;;;;7.40;2.20;;;17.90;99.90;;;;;;5048381;28;20044;-57
2023/09/01 10:29:07;;;;;;;2.38;1.50;;;17.90;99.90;;;;;;5067583;28;20728;-59
2023/09/01 10:31:35;;;;;;;5.03;1.67;;;17.90;99.90;;;;;;5031632;28;20152;-58
2023/09/01 10:34:14;;;;;;;4.47;1.70;;;18.00;99.90;;;;;;5045312;28;20037;-59
2023/09/01 10:36:45;;;;;;;3.05;1.30;;;18.10;99.90;;;;;;5045019;28;20067;-59
2023/09/01 10:39:17;;;;;;;4.70;1.40;;;18.20;99.90;;;;;;5043833;28;20628;-58
2023/09/01 10:41:51;;;;;;;3.65;1.48;;;18.30;99.90;;;;;;5048062;28;20508;-59
2023/09/01 10:44:17;;;;;;;4.60;1.20;;;18.40;99.90;;;;;;5036179;28;20534;-59
2023/09/01 10:46:43;;;;;;;5.70;1.42;;;18.40;99.90;;;;;;5041833;28;20036;-58
2023/09/01 10:49:10;;;;;;;3.28;1.30;;;18.50;99.90;;;;;;5047160;28;20484;-58
2023/09/01 10:51:43;;;;;;;3.97;1.85;;;18.50;99.90;;;;;;5027383;28;20127;-59
2023/09/01 10:54:15;;;;;;;3.17;1.60;;;18.50;99.90;;;;;;5040796;28;20489;-59
2023/09/01 10:56:59;;;;;;;2.58;1.65;;;18.50;99.90;;;;;;5047611;28;20416;-59
2023/09/01 10:59:28;;;;;;;3.95;1.45;;;18.50;99.90;;;;;;5045318;28;20111;-59
2023/09/01 11:01:54;;;;;;;3.10;1.67;;;18.60;99.90;;;;;;5043284;28;20045;-59
2023/09/01 11:04:20;;;;;;;4.28;1.40;;;18.70;99.90;;;;;;5046935;28;20066;-59
2023/09/01 11:06:58;;;;;;;3.42;1.65;;;18.80;99.90;;;;;;5041365;28;20025;-59
2023/09/01 11:09:49;;;;;;;3.42;1.70;;;19.00;99.90;;;;;;5025875;28;20127;-59
2023/09/01 11:12:15;;;;;;;3.28;1.40;;;19.20;99.90;;;;;;5045067;28;20502;-59
2023/09/01 11:14:59;;;;;;;6.35;1.75;;;19.40;99.90;;;;;;5045293;28;20052;-59
2023/09/01 11:17:44;;;;;;;5.40;2.13;;;19.60;99.90;;;;;;5041387;28;20044;-59
2023/09/01 11:20:12;;;;;;;7.22;2.15;;;19.60;99.90;;;;;;5047013;28;20508;-59
2023/09/01 11:22:40;;;;;;;5.20;1.92;;;19.60;99.90;;;;;;5021488;28;20760;-58
2023/09/01 11:25:12;;;;;;;9.05;2.13;;;19.70;99.90;;;;;;5020755;28;20048;-59
2023/09/01 11:27:45;;;;;;;4.18;1.52;;;19.70;99.90;;;;;;5025170;28;20076;-59
2023/09/01 11:30:11;;;;;;;5.20;2.35;;;19.70;99.90;;;;;;5045765;28;20052;-59
2023/09/01 11:32:37;;;;;;;4.53;2.10;;;19.70;99.90;;;;;;5019082;28;20055;-59
2023/09/01 11:35:03;;;;;;;4.95;1.70;;;19.70;99.90;;;;;;5042908;28;20044;-58
2023/09/01 11:37:39;;;;;;;6.22;1.85;;;19.60;99.90;;;;;;5033393;28;20048;-59
2023/09/01 11:40:08;;;;;;;5.20;1.80;;;19.70;99.90;;;;;;5045535;28;20052;-58
2023/09/01 11:42:37;;;;;;;5.00;2.08;;;19.70;99.90;;;;;;5047135;28;20040;-58
2023/09/01 11:45:05;;;;;;;6.97;2.38;;;19.80;99.90;;;;;;5046425;28;20402;-63
2023/09/01 11:47:31;;;;;;;3.83;2.20;;;19.90;99.90;;;;;;5040946;28;20032;-58
2023/09/01 11:49:56;;;;;;;2.97;1.85;;;19.90;99.90;;;;;;5045941;28;20531;-57
2023/09/01 11:52:23;;;;;;;4.13;1.63;;;20.00;99.90;;;;;;5062780;28;20400;-58
2023/09/01 11:54:51;;;;;;;7.05;2.17;;;20.10;99.90;;;;;;5041755;28;20048;-59
2023/09/01 11:57:17;;;;;;;4.95;2.47;;;20.20;99.90;;;;;;5041461;28;20248;-58
2023/09/01 11:59:47;;;;;;;6.72;2.22;;;20.20;99.90;;;;;;5060778;28;20582;-57
2023/09/01 12:02:14;;;;;;;5.25;2.08;;;20.30;99.90;;;;;;5045480;28;20062;-59
2023/09/01 12:04:51;;;;;;;5.63;2.25;;;20.40;99.90;;;;;;5046505;28;20032;-58
2023/09/01 12:07:28;;;;;;;6.60;2.70;;;20.40;99.90;;;;;;5043904;28;20064;-57
2023/09/01 12:09:55;;;;;;;5.18;2.67;;;20.50;99.90;;;;;;5023597;28;20459;-59
2023/09/01 12:12:21;;;;;;;5.72;2.90;;;20.50;99.90;;;;;;5024873;28;20063;-57
2023/09/01 12:14:47;;;;;;;5.80;3.03;;;20.60;99.90;;;;;;5042615;28;20432;-59
2023/09/01 12:17:20;;;;;;;6.95;3.22;;;20.70;99.90;;;;;;5041299;28;20380;-58
2023/09/01 12:19:46;;;;;;;;;;;20.70;99.90;;;;;;5046240;28;20032;-58
2023/09/01 12:22:12;;;;;;;5.25;2.42;;;20.80;99.90;;;;;;5026482;28;19916;-58
2023/09/01 12:24:38;;;;;;;8.07;3.58;;;20.90;99.90;;;;;;5026416;28;21668;-57
2023/09/01 12:27:05;;;;;;;7.45;3.05;;;21.00;99.90;;;;;;5038783;28;20041;-58
2023/09/01 12:29:31;;;;;;;6.60;3.22;;;21.30;99.90;;;;;;5034513;28;20507;-59
2023/09/01 12:31:57;;;;;;;6.10;2.83;;;21.30;99.90;;;;;;5037713;28;20039;-57
2023/09/01 12:34:23;;;;;;;7.40;2.92;;;21.30;99.90;;;;;;5026937;28;20415;-58
2023/09/01 12:36:49;;;;;;;4.30;2.42;;;21.40;99.90;;;;;;5043718;28;20044;-59
2023/09/01 12:39:15;;;;;;;6.38;2.75;;;21.60;99.90;;;;;;5025122;28;20080;-59
2023/09/01 12:41:40;;;;;;;5.15;2.80;;;21.70;99.90;;;;;;5023848;28;20103;-59
2023/09/01 12:44:06;;;;;;;6.63;3.17;;;21.80;99.90;;;;;;5012673;28;20048;-59
2023/09/01 12:46:32;;;;;;;6.85;2.80;;;21.80;99.90;;;;;;5041254;28;20500;-59
2023/09/01 12:48:58;;;;;;;5.03;2.42;;;22.00;99.90;;;;;;5041385;28;20504;-59